RZO125 LPPT-LPPD
Flight info
| Callsign | RZO125 |
|---|---|
| Flight time | 2h 12m |
| Altitude | 35000 |
| Route | ZIFOG DCT TABAX DCT KOMUT/M079F360 DCT 38N020W DCT BEKUN DCT OMOBI |
| Aircraft | A320/M-SDE3FGHIRWY/LB1 |
Departure
| Time | 2026-05-04 16:16 |
|---|---|
| Airport | Lisbon Humberto Delgado Airport (LPPT) |
Arrival
| Time | 2026-05-04 18:29 |
|---|---|
| Airport | João Paulo II Airport (LPPD) |
| Time | Latitude | Longitude | Altitude | Speed | Heading |
|---|---|---|---|---|---|
| 2026-05-04 15:44 | 38.77028 | -9.13090 | 352 ft | 0 kts | 78° |
| 2026-05-04 16:08 | 38.77026 | -9.13148 | 355 ft | 4 kts | 105° |
| 2026-05-04 16:09 | 38.77046 | -9.13182 | 361 ft | 0 kts | 169° |
| 2026-05-04 16:12 | 38.76875 | -9.13138 | 353 ft | 12 kts | 165° |
| 2026-05-04 16:12 | 38.76765 | -9.13255 | 355 ft | 8 kts | 257° |
| 2026-05-04 16:13 | 38.76663 | -9.13466 | 354 ft | 17 kts | 234° |
| 2026-05-04 16:13 | 38.76607 | -9.13777 | 351 ft | 19 kts | 258° |
| 2026-05-04 16:14 | 38.76559 | -9.14124 | 356 ft | 18 kts | 284° |
| 2026-05-04 16:14 | 38.76591 | -9.14231 | 354 ft | 7 kts | 292° |
| 2026-05-04 16:15 | 38.76694 | -9.14363 | 351 ft | 0 kts | 18° |
| 2026-05-04 16:16 | 38.77005 | -9.14196 | 354 ft | 81 kts | 22° |
| 2026-05-04 16:16 | 38.79774 | -9.12638 | 1277 ft | 165 kts | 20° |
| 2026-05-04 16:17 | 38.81912 | -9.11393 | 2387 ft | 184 kts | 20° |
| 2026-05-04 16:18 | 38.85855 | -9.08708 | 3522 ft | 249 kts | 28° |
| 2026-05-04 16:18 | 38.87373 | -9.07557 | 4278 ft | 255 kts | 19° |
| 2026-05-04 16:19 | 38.92116 | -9.09288 | 6677 ft | 261 kts | 303° |
| 2026-05-04 16:19 | 38.92657 | -9.13828 | 8316 ft | 269 kts | 262° |
| 2026-05-04 16:20 | 38.91700 | -9.21075 | 10585 ft | 290 kts | 261° |
| 2026-05-04 16:20 | 38.90967 | -9.26596 | 11088 ft | 332 kts | 261° |
| 2026-05-04 16:21 | 38.89773 | -9.35570 | 13193 ft | 345 kts | 261° |
| 2026-05-04 16:22 | 38.88953 | -9.41684 | 14600 ft | 349 kts | 262° |
| 2026-05-04 16:22 | 38.87704 | -9.50994 | 16536 ft | 356 kts | 261° |
| 2026-05-04 16:23 | 38.86430 | -9.60426 | 18424 ft | 362 kts | 261° |
| 2026-05-04 16:24 | 38.84678 | -9.73319 | 20631 ft | 370 kts | 261° |
| 2026-05-04 16:25 | 38.83781 | -9.79858 | 21689 ft | 374 kts | 261° |
| 2026-05-04 16:26 | 38.81953 | -9.93068 | 23641 ft | 381 kts | 261° |
| 2026-05-04 16:26 | 38.80557 | -10.03167 | 24774 ft | 386 kts | 261° |
| 2026-05-04 16:27 | 38.79607 | -10.09970 | 25494 ft | 388 kts | 261° |
| 2026-05-04 16:28 | 38.78161 | -10.20245 | 26544 ft | 392 kts | 261° |
| 2026-05-04 16:28 | 38.76691 | -10.30625 | 27525 ft | 396 kts | 261° |
| 2026-05-04 16:29 | 38.74715 | -10.44575 | 28697 ft | 402 kts | 261° |
| 2026-05-04 16:30 | 38.73187 | -10.55180 | 29484 ft | 405 kts | 261° |
| 2026-05-04 16:31 | 38.72167 | -10.62235 | 30199 ft | 402 kts | 261° |
| 2026-05-04 16:31 | 38.70637 | -10.72738 | 31103 ft | 398 kts | 261° |
| 2026-05-04 16:32 | 38.69118 | -10.83153 | 31987 ft | 395 kts | 261° |
| 2026-05-04 16:33 | 38.68100 | -10.90043 | 32578 ft | 393 kts | 260° |
| 2026-05-04 16:33 | 38.67089 | -10.96898 | 33163 ft | 391 kts | 261° |
| 2026-05-04 16:34 | 38.66083 | -11.03714 | 33744 ft | 389 kts | 260° |
| 2026-05-04 16:34 | 38.65585 | -11.07068 | 34038 ft | 388 kts | 260° |
| 2026-05-04 16:35 | 38.64077 | -11.17221 | 34747 ft | 387 kts | 260° |
| 2026-05-04 16:35 | 38.62546 | -11.27385 | 35140 ft | 389 kts | 260° |
| 2026-05-04 16:36 | 38.60995 | -11.37600 | 35143 ft | 390 kts | 260° |
| 2026-05-04 16:37 | 38.59444 | -11.47842 | 35147 ft | 390 kts | 260° |
| 2026-05-04 16:38 | 38.57369 | -11.61475 | 35151 ft | 391 kts | 259° |
| 2026-05-04 16:39 | 38.54735 | -11.78478 | 35161 ft | 391 kts | 259° |
| 2026-05-04 16:40 | 38.52606 | -11.92106 | 35161 ft | 391 kts | 259° |
| 2026-05-04 16:41 | 38.49935 | -12.09114 | 35164 ft | 391 kts | 259° |
| 2026-05-04 16:43 | 38.47246 | -12.26000 | 35163 ft | 391 kts | 259° |
| 2026-05-04 16:43 | 38.45613 | -12.36210 | 35162 ft | 391 kts | 259° |
| 2026-05-04 16:45 | 38.42318 | -12.56558 | 35167 ft | 391 kts | 259° |
| 2026-05-04 16:46 | 38.39549 | -12.73563 | 35166 ft | 392 kts | 259° |
| 2026-05-04 16:47 | 38.37497 | -12.86025 | 35173 ft | 392 kts | 259° |
| 2026-05-04 16:48 | 38.35231 | -12.99632 | 35174 ft | 392 kts | 259° |
| 2026-05-04 16:49 | 38.32959 | -13.13242 | 35178 ft | 392 kts | 258° |
| 2026-05-04 16:50 | 38.30667 | -13.26819 | 35177 ft | 392 kts | 258° |
| 2026-05-04 16:51 | 38.28950 | -13.36945 | 35178 ft | 392 kts | 258° |
| 2026-05-04 16:52 | 38.26647 | -13.50499 | 35178 ft | 393 kts | 258° |
| 2026-05-04 16:53 | 38.24903 | -13.60680 | 35180 ft | 393 kts | 258° |
| 2026-05-04 16:54 | 38.22552 | -13.74268 | 35186 ft | 393 kts | 258° |
| 2026-05-04 16:55 | 38.18995 | -13.94680 | 35192 ft | 394 kts | 258° |
| 2026-05-04 16:56 | 38.16010 | -14.11570 | 35190 ft | 394 kts | 258° |
| 2026-05-04 16:57 | 38.14204 | -14.21783 | 35194 ft | 395 kts | 258° |
| 2026-05-04 16:58 | 38.11778 | -14.35351 | 35200 ft | 395 kts | 258° |
| 2026-05-04 17:00 | 38.08115 | -14.55738 | 35198 ft | 394 kts | 258° |
| 2026-05-04 17:01 | 38.05020 | -14.72695 | 35197 ft | 395 kts | 258° |
| 2026-05-04 17:02 | 38.02536 | -14.86275 | 35198 ft | 395 kts | 258° |
| 2026-05-04 17:03 | 38.00659 | -14.96458 | 35086 ft | 397 kts | 258° |
| 2026-05-04 17:03 | 38.00152 | -14.99872 | 35201 ft | 400 kts | 265° |
| 2026-05-04 17:03 | 38.00143 | -15.06972 | 35199 ft | 405 kts | 271° |
| 2026-05-04 17:04 | 38.00437 | -15.21266 | 35202 ft | 405 kts | 271° |
| 2026-05-04 17:05 | 38.00706 | -15.35545 | 35200 ft | 404 kts | 271° |
| 2026-05-04 17:06 | 38.00896 | -15.46244 | 35199 ft | 404 kts | 271° |
| 2026-05-04 17:07 | 38.01055 | -15.55727 | 35199 ft | 404 kts | 271° |
| 2026-05-04 17:07 | 38.01187 | -15.63997 | 35198 ft | 403 kts | 271° |
| 2026-05-04 17:08 | 38.01353 | -15.74669 | 35198 ft | 403 kts | 271° |
| 2026-05-04 17:09 | 38.01449 | -15.81783 | 35196 ft | 403 kts | 271° |
| 2026-05-04 17:09 | 38.01554 | -15.88890 | 35195 ft | 403 kts | 271° |
| 2026-05-04 17:10 | 38.01781 | -16.06652 | 35196 ft | 402 kts | 271° |
| 2026-05-04 17:11 | 38.01869 | -16.13697 | 35200 ft | 402 kts | 271° |
| 2026-05-04 17:12 | 38.01987 | -16.24331 | 35207 ft | 402 kts | 270° |
| 2026-05-04 17:13 | 38.02159 | -16.42049 | 35206 ft | 401 kts | 270° |
| 2026-05-04 17:14 | 38.02279 | -16.56179 | 35213 ft | 401 kts | 270° |
| 2026-05-04 17:15 | 38.02357 | -16.66805 | 35211 ft | 402 kts | 270° |
| 2026-05-04 17:16 | 38.02453 | -16.80986 | 35212 ft | 402 kts | 270° |
| 2026-05-04 17:17 | 38.02528 | -16.95179 | 35214 ft | 402 kts | 270° |
| 2026-05-04 17:18 | 38.02584 | -17.09336 | 35200 ft | 404 kts | 270° |
| 2026-05-04 17:19 | 38.02623 | -17.23681 | 35196 ft | 408 kts | 270° |
| 2026-05-04 17:20 | 38.02656 | -17.38121 | 35206 ft | 410 kts | 270° |
| 2026-05-04 17:20 | 38.02663 | -17.48977 | 35211 ft | 411 kts | 270° |
| 2026-05-04 17:21 | 38.02646 | -17.63480 | 35218 ft | 411 kts | 269° |
| 2026-05-04 17:22 | 38.02639 | -17.69388 | 35227 ft | 411 kts | 270° |
| 2026-05-04 17:23 | 38.02638 | -17.69637 | 35225 ft | 411 kts | 269° |
| 2026-05-04 17:26 | 38.02656 | -17.84922 | 35270 ft | 394 kts | 268° |
| 2026-05-04 17:27 | 38.02498 | -18.02534 | 35241 ft | 402 kts | 269° |
| 2026-05-04 17:28 | 38.02469 | -18.16712 | 35239 ft | 402 kts | 269° |
| 2026-05-04 17:29 | 38.02322 | -18.38001 | 35237 ft | 402 kts | 269° |
| 2026-05-04 17:31 | 38.02180 | -18.55703 | 35236 ft | 402 kts | 269° |
| 2026-05-04 17:32 | 38.02007 | -18.73473 | 35241 ft | 403 kts | 269° |
| 2026-05-04 17:33 | 38.01859 | -18.87612 | 35245 ft | 403 kts | 269° |
| 2026-05-04 17:34 | 38.01677 | -19.01854 | 35253 ft | 404 kts | 268° |
| 2026-05-04 17:35 | 38.01441 | -19.19640 | 35254 ft | 404 kts | 268° |
| 2026-05-04 17:36 | 38.01336 | -19.26768 | 35255 ft | 404 kts | 268° |
| 2026-05-04 17:36 | 38.01226 | -19.33892 | 35256 ft | 404 kts | 268° |
| 2026-05-04 17:37 | 38.01109 | -19.41021 | 35254 ft | 404 kts | 268° |
| 2026-05-04 17:37 | 38.00986 | -19.48148 | 35256 ft | 404 kts | 268° |
| 2026-05-04 17:38 | 38.00864 | -19.55272 | 35248 ft | 404 kts | 268° |
| 2026-05-04 17:38 | 38.00741 | -19.62351 | 35251 ft | 404 kts | 268° |
| 2026-05-04 17:39 | 38.00552 | -19.73043 | 35253 ft | 404 kts | 268° |
| 2026-05-04 17:39 | 38.00413 | -19.80172 | 35251 ft | 404 kts | 268° |
| 2026-05-04 17:40 | 38.00276 | -19.87312 | 35247 ft | 405 kts | 268° |
| 2026-05-04 17:40 | 38.00128 | -19.94442 | 35251 ft | 405 kts | 268° |
| 2026-05-04 17:41 | 37.99974 | -20.01579 | 35248 ft | 405 kts | 268° |
| 2026-05-04 17:41 | 37.99927 | -20.08734 | 35249 ft | 405 kts | 269° |
| 2026-05-04 17:42 | 37.99940 | -20.15879 | 35249 ft | 406 kts | 269° |
| 2026-05-04 17:42 | 37.99937 | -20.22990 | 35248 ft | 406 kts | 269° |
| 2026-05-04 17:43 | 37.99906 | -20.30154 | 35248 ft | 406 kts | 269° |
| 2026-05-04 17:43 | 37.99859 | -20.37324 | 35253 ft | 407 kts | 269° |
| 2026-05-04 17:44 | 37.99814 | -20.44513 | 35263 ft | 408 kts | 269° |
| 2026-05-04 17:44 | 37.99772 | -20.51697 | 35266 ft | 408 kts | 269° |
| 2026-05-04 17:45 | 37.99724 | -20.58886 | 35264 ft | 408 kts | 269° |
| 2026-05-04 17:45 | 37.99671 | -20.66083 | 35265 ft | 408 kts | 269° |
| 2026-05-04 17:46 | 37.99613 | -20.73223 | 35261 ft | 407 kts | 268° |
| 2026-05-04 17:46 | 37.99549 | -20.80410 | 35260 ft | 408 kts | 269° |
| 2026-05-04 17:47 | 37.99483 | -20.87598 | 35260 ft | 408 kts | 268° |
| 2026-05-04 17:47 | 37.99412 | -20.94793 | 35260 ft | 408 kts | 268° |
| 2026-05-04 17:48 | 37.99332 | -21.01986 | 35259 ft | 408 kts | 268° |
| 2026-05-04 17:48 | 37.99250 | -21.09195 | 35260 ft | 408 kts | 268° |
| 2026-05-04 17:49 | 37.99167 | -21.16408 | 35255 ft | 408 kts | 268° |
| 2026-05-04 17:49 | 37.99086 | -21.23569 | 35252 ft | 409 kts | 268° |
| 2026-05-04 17:50 | 37.98991 | -21.30782 | 35257 ft | 409 kts | 268° |
| 2026-05-04 17:50 | 37.98825 | -21.37987 | 35258 ft | 409 kts | 265° |
| 2026-05-04 17:51 | 37.98265 | -21.45179 | 35263 ft | 410 kts | 263° |
| 2026-05-04 17:51 | 37.97591 | -21.52365 | 35268 ft | 410 kts | 263° |
| 2026-05-04 17:52 | 37.96921 | -21.59509 | 35267 ft | 411 kts | 263° |
| 2026-05-04 17:52 | 37.96275 | -21.66699 | 35266 ft | 411 kts | 263° |
| 2026-05-04 17:53 | 37.95636 | -21.73899 | 35269 ft | 411 kts | 263° |
| 2026-05-04 17:53 | 37.94983 | -21.81091 | 35270 ft | 411 kts | 263° |
| 2026-05-04 17:54 | 37.94325 | -21.88280 | 35266 ft | 411 kts | 263° |
| 2026-05-04 17:54 | 37.93667 | -21.95474 | 35265 ft | 411 kts | 263° |
| 2026-05-04 17:55 | 37.93003 | -22.02667 | 35266 ft | 411 kts | 263° |
| 2026-05-04 17:55 | 37.92332 | -22.09829 | 35265 ft | 412 kts | 263° |
| 2026-05-04 17:56 | 37.91649 | -22.17023 | 35266 ft | 412 kts | 263° |
| 2026-05-04 17:56 | 37.90973 | -22.24232 | 35265 ft | 412 kts | 263° |
| 2026-05-04 17:57 | 37.90291 | -22.31449 | 35266 ft | 413 kts | 263° |
| 2026-05-04 17:57 | 37.89601 | -22.38667 | 35271 ft | 413 kts | 263° |
| 2026-05-04 17:58 | 37.88908 | -22.45837 | 35270 ft | 413 kts | 263° |
| 2026-05-04 17:58 | 37.88205 | -22.53102 | 35272 ft | 413 kts | 263° |
| 2026-05-04 17:59 | 37.87499 | -22.60329 | 35275 ft | 413 kts | 263° |
| 2026-05-04 18:00 | 37.86432 | -22.71123 | 35276 ft | 414 kts | 263° |
| 2026-05-04 18:00 | 37.85712 | -22.78363 | 35277 ft | 414 kts | 263° |
| 2026-05-04 18:01 | 37.85059 | -22.85607 | 35273 ft | 414 kts | 264° |
| 2026-05-04 18:01 | 37.84484 | -22.92862 | 35278 ft | 414 kts | 264° |
| 2026-05-04 18:02 | 37.83599 | -23.03687 | 35284 ft | 414 kts | 264° |
| 2026-05-04 18:02 | 37.82987 | -23.10937 | 35285 ft | 415 kts | 264° |
| 2026-05-04 18:03 | 37.82374 | -23.18193 | 35284 ft | 415 kts | 264° |
| 2026-05-04 18:03 | 37.81749 | -23.25445 | 35282 ft | 415 kts | 264° |
| 2026-05-04 18:04 | 37.81131 | -23.32702 | 35283 ft | 415 kts | 264° |
| 2026-05-04 18:05 | 37.80187 | -23.43596 | 35285 ft | 415 kts | 264° |
| 2026-05-04 18:05 | 37.79550 | -23.50860 | 35287 ft | 416 kts | 264° |
| 2026-05-04 18:06 | 37.78595 | -23.61712 | 35285 ft | 416 kts | 264° |
| 2026-05-04 18:06 | 37.77945 | -23.68988 | 35003 ft | 416 kts | 264° |
| 2026-05-04 18:07 | 37.77621 | -23.72619 | 34759 ft | 416 kts | 264° |
| 2026-05-04 18:07 | 37.77295 | -23.76257 | 34522 ft | 416 kts | 264° |
| 2026-05-04 18:07 | 37.76969 | -23.79889 | 34281 ft | 416 kts | 264° |
| 2026-05-04 18:07 | 37.76641 | -23.83521 | 34016 ft | 416 kts | 264° |
| 2026-05-04 18:08 | 37.76315 | -23.87117 | 33743 ft | 417 kts | 264° |
| 2026-05-04 18:08 | 37.75982 | -23.90762 | 33474 ft | 418 kts | 264° |
| 2026-05-04 18:08 | 37.75644 | -23.94460 | 33201 ft | 419 kts | 264° |
| 2026-05-04 18:08 | 37.75312 | -23.98071 | 32937 ft | 420 kts | 264° |
| 2026-05-04 18:09 | 37.74628 | -24.05413 | 32419 ft | 421 kts | 263° |
| 2026-05-04 18:09 | 37.73943 | -24.12772 | 31603 ft | 423 kts | 264° |
| 2026-05-04 18:10 | 37.73599 | -24.16482 | 30541 ft | 427 kts | 264° |
| 2026-05-04 18:10 | 37.73248 | -24.20233 | 29372 ft | 431 kts | 264° |
| 2026-05-04 18:10 | 37.72897 | -24.23983 | 28579 ft | 427 kts | 263° |
| 2026-05-04 18:10 | 37.72550 | -24.27667 | 27962 ft | 420 kts | 263° |
| 2026-05-04 18:11 | 37.72205 | -24.31312 | 27287 ft | 415 kts | 263° |
| 2026-05-04 18:11 | 37.71863 | -24.34918 | 26622 ft | 412 kts | 263° |
| 2026-05-04 18:11 | 37.71521 | -24.38497 | 25973 ft | 409 kts | 263° |
| 2026-05-04 18:11 | 37.71180 | -24.42053 | 25335 ft | 406 kts | 263° |
| 2026-05-04 18:12 | 37.70842 | -24.45581 | 24702 ft | 404 kts | 263° |
| 2026-05-04 18:12 | 37.70503 | -24.49091 | 24077 ft | 402 kts | 263° |
| 2026-05-04 18:12 | 37.70169 | -24.52544 | 23395 ft | 400 kts | 264° |
| 2026-05-04 18:12 | 37.69834 | -24.56022 | 22798 ft | 397 kts | 264° |
| 2026-05-04 18:13 | 37.69503 | -24.59462 | 22220 ft | 393 kts | 264° |
| 2026-05-04 18:13 | 37.69171 | -24.62873 | 21680 ft | 390 kts | 264° |
| 2026-05-04 18:13 | 37.68509 | -24.69621 | 20626 ft | 384 kts | 264° |
| 2026-05-04 18:14 | 37.68181 | -24.72958 | 20114 ft | 381 kts | 263° |
| 2026-05-04 18:14 | 37.67854 | -24.76269 | 19637 ft | 379 kts | 263° |
| 2026-05-04 18:14 | 37.67529 | -24.79559 | 19149 ft | 376 kts | 263° |
| 2026-05-04 18:15 | 37.66883 | -24.86082 | 18154 ft | 372 kts | 263° |
| 2026-05-04 18:15 | 37.66350 | -24.91441 | 17356 ft | 368 kts | 264° |
| 2026-05-04 18:15 | 37.66030 | -24.94635 | 16867 ft | 366 kts | 263° |
| 2026-05-04 18:16 | 37.65607 | -24.98847 | 16211 ft | 364 kts | 264° |
| 2026-05-04 18:16 | 37.65288 | -25.02016 | 15697 ft | 363 kts | 264° |
| 2026-05-04 18:16 | 37.65073 | -25.04147 | 15355 ft | 363 kts | 264° |
| 2026-05-04 18:17 | 37.64437 | -25.10418 | 14307 ft | 362 kts | 264° |
| 2026-05-04 18:17 | 37.64114 | -25.13581 | 13727 ft | 363 kts | 264° |
| 2026-05-04 18:17 | 37.63467 | -25.19876 | 12608 ft | 360 kts | 264° |
| 2026-05-04 18:18 | 37.63150 | -25.22980 | 12060 ft | 358 kts | 264° |
| 2026-05-04 18:18 | 37.62833 | -25.26100 | 11487 ft | 357 kts | 264° |
| 2026-05-04 18:18 | 37.62515 | -25.29197 | 11019 ft | 353 kts | 265° |
| 2026-05-04 18:18 | 37.62437 | -25.32170 | 10887 ft | 325 kts | 276° |
| 2026-05-04 18:19 | 37.62982 | -25.37549 | 10347 ft | 302 kts | 280° |
| 2026-05-04 18:19 | 37.63265 | -25.40163 | 10177 ft | 299 kts | 279° |
| 2026-05-04 18:19 | 37.63550 | -25.42761 | 10030 ft | 299 kts | 281° |
| 2026-05-04 18:20 | 37.63831 | -25.45324 | 9914 ft | 298 kts | 280° |
| 2026-05-04 18:20 | 37.64116 | -25.47948 | 9759 ft | 298 kts | 280° |
| 2026-05-04 18:20 | 37.64393 | -25.50504 | 9356 ft | 300 kts | 280° |
| 2026-05-04 18:20 | 37.64675 | -25.53112 | 8934 ft | 298 kts | 280° |
| 2026-05-04 18:21 | 37.64954 | -25.55705 | 8565 ft | 297 kts | 280° |
| 2026-05-04 18:21 | 37.65227 | -25.58278 | 8186 ft | 295 kts | 280° |
| 2026-05-04 18:21 | 37.65498 | -25.60831 | 7704 ft | 291 kts | 280° |
| 2026-05-04 18:21 | 37.65764 | -25.63355 | 7025 ft | 289 kts | 280° |
| 2026-05-04 18:22 | 37.66028 | -25.65860 | 6324 ft | 286 kts | 280° |
| 2026-05-04 18:22 | 37.66288 | -25.68346 | 5620 ft | 284 kts | 280° |
| 2026-05-04 18:22 | 37.66543 | -25.70790 | 5040 ft | 277 kts | 279° |
| 2026-05-04 18:22 | 37.66789 | -25.73153 | 4528 ft | 267 kts | 280° |
| 2026-05-04 18:23 | 37.67028 | -25.75415 | 4066 ft | 258 kts | 280° |
| 2026-05-04 18:23 | 37.67261 | -25.77616 | 3614 ft | 249 kts | 280° |
| 2026-05-04 18:23 | 37.67524 | -25.79752 | 3161 ft | 242 kts | 287° |
| 2026-05-04 18:23 | 37.68111 | -25.81644 | 2921 ft | 217 kts | 303° |
| 2026-05-04 18:24 | 37.68927 | -25.83128 | 2913 ft | 193 kts | 314° |
| 2026-05-04 18:24 | 37.69752 | -25.84339 | 2839 ft | 171 kts | 323° |
| 2026-05-04 18:24 | 37.70675 | -25.85089 | 2770 ft | 149 kts | 345° |
| 2026-05-04 18:24 | 37.71643 | -25.85392 | 2706 ft | 143 kts | 1° |
| 2026-05-04 18:25 | 37.72748 | -25.85280 | 2648 ft | 166 kts | 18° |
| 2026-05-04 18:25 | 37.73771 | -25.84759 | 2568 ft | 160 kts | 27° |
| 2026-05-04 18:25 | 37.74854 | -25.84140 | 2494 ft | 176 kts | 26° |
| 2026-05-04 18:25 | 37.75978 | -25.83505 | 2410 ft | 178 kts | 26° |
| 2026-05-04 18:26 | 37.76996 | -25.82653 | 2322 ft | 176 kts | 51° |
| 2026-05-04 18:26 | 37.77495 | -25.81286 | 2080 ft | 177 kts | 79° |
| 2026-05-04 18:26 | 37.77349 | -25.79739 | 1774 ft | 182 kts | 107° |
| 2026-05-04 18:26 | 37.76885 | -25.78271 | 1519 ft | 174 kts | 108° |
| 2026-05-04 18:27 | 37.76459 | -25.76923 | 1295 ft | 155 kts | 108° |
| 2026-05-04 18:27 | 37.76081 | -25.75729 | 1087 ft | 139 kts | 106° |
| 2026-05-04 18:27 | 37.75729 | -25.74614 | 903 ft | 136 kts | 107° |
| 2026-05-04 18:27 | 37.75379 | -25.73506 | 728 ft | 135 kts | 107° |
| 2026-05-04 18:28 | 37.75039 | -25.72408 | 565 ft | 133 kts | 105° |
| 2026-05-04 18:28 | 37.74701 | -25.71327 | 359 ft | 132 kts | 105° |
| 2026-05-04 18:28 | 37.74376 | -25.70289 | 268 ft | 112 kts | 110° |
| 2026-05-04 18:28 | 37.74145 | -25.69583 | 268 ft | 62 kts | 114° |
| 2026-05-04 18:29 | 37.74030 | -25.69275 | 268 ft | 16 kts | 130° |
| 2026-05-04 18:29 | 37.74047 | -25.69268 | 268 ft | 18 kts | 257° |
| 2026-05-04 18:29 | 37.74077 | -25.69409 | 268 ft | 16 kts | 294° |
| 2026-05-04 18:29 | 37.74120 | -25.69529 | 268 ft | 14 kts | 295° |
| 2026-05-04 18:30 | 37.74191 | -25.69740 | 268 ft | 12 kts | 291° |
| 2026-05-04 18:30 | 37.74219 | -25.69831 | 268 ft | 11 kts | 292° |
| 2026-05-04 18:30 | 37.74246 | -25.69913 | 268 ft | 10 kts | 292° |
| 2026-05-04 18:31 | 37.74270 | -25.69988 | 268 ft | 9 kts | 292° |
| 2026-05-04 18:31 | 37.74291 | -25.70055 | 268 ft | 8 kts | 292° |
| 2026-05-04 18:31 | 37.74312 | -25.70115 | 268 ft | 8 kts | 294° |
| 2026-05-04 18:31 | 37.74356 | -25.70210 | 268 ft | 14 kts | 306° |
| 2026-05-04 18:32 | 37.74425 | -25.70296 | 268 ft | 14 kts | 318° |
| 2026-05-04 18:32 | 37.74509 | -25.70380 | 268 ft | 17 kts | 323° |
| 2026-05-04 18:32 | 37.74600 | -25.70483 | 268 ft | 19 kts | 305° |
| 2026-05-04 18:32 | 37.74653 | -25.70640 | 268 ft | 20 kts | 290° |
| 2026-05-04 18:33 | 37.74707 | -25.70806 | 268 ft | 21 kts | 293° |
| 2026-05-04 18:33 | 37.74762 | -25.70979 | 268 ft | 22 kts | 291° |
| 2026-05-04 18:33 | 37.74801 | -25.71104 | 268 ft | 6 kts | 291° |
| 2026-05-04 18:33 | 37.74823 | -25.71139 | 268 ft | 4 kts | 342° |
| 2026-05-04 18:34 | 37.74856 | -25.71128 | 268 ft | 6 kts | 20° |
| 2026-05-04 18:34 | 37.74876 | -25.71119 | 268 ft | 2 kts | 21° |
| 2026-05-04 18:34 | 37.74880 | -25.71116 | 268 ft | 0 kts | 21° |